Al Ahsa, Saudi Arabia
Current Conditions -  °F | °C
As of 11:00 AM on Saturday 25 Oct 2014 (Local Time) from OEAH Reporting Station
Clear Clear  
Wind Chill: 88°   Ceiling: Unl
Heat Index: 88°   Visibility: 6mi
Dew Point: 54°   Wind: 7mph
Humidity: 31%   Direction: 360°N
Pressure: 29.91"   Gusts: NA
Location:  25.3°N, 49.48°E
Report Text: OEAH 250800Z 36006KT CAVOK 31/12 Q1013 NOSIG
Loading
Personal Weather Stations






























Interactive Weather Map
Tropical Storm Tracking
New forecast layout! Learn more

10-Day Weather Forecast

Advertisements
Track Severe Weather on mobile